Flight Track Log - Related Links

Times and Time Zones

All times are in EDT time to prevent confusion due to time zone crossing. See the UAL4476 flight status page for this flight to view local times or setup timezone preferences in your user account.

Time Position Orientation Groundspeed Altitude Reporting Facility
EDT Latitude Longitude Course Direction KTS MPH feet Rate Location/Type
Thu 07:15:59 AM 32.9333 -97.0167 66° East 188 216 2,600  Level Dallas / Fort Worth TRACON
Thu 07:16:54 AM 33.0000 -97.0000 12° North 245 282 5,100 2,543 Climbing Dallas / Fort Worth TRACON
Thu 07:19:03 AM 33.0322 -96.8114 78° East 295 339 10,400 2,190 Climbing Fort Worth Center
Thu 07:20:03 AM 33.0444 -96.7072 82° East 329 379 12,000 1,750 Climbing Fort Worth Center
Thu 07:21:00 AM 33.0808 -96.2778 66° East  Level FlightAware Approximate
Thu 07:21:03 AM 33.0561 -96.6006 83° East 356 410 13,900  Level Fort Worth Center
Thu 07:22:03 AM 33.0697 -96.4542 84° East 374 430 16,200 1,900 Climbing Fort Worth Center
Thu 07:23:03 AM 33.0836 -96.3375 82° East 379 436 17,700 1,500 Climbing Fort Worth Center
Thu 07:24:03 AM 33.1219 -96.2031 71° East 385 443 19,200 1,400 Climbing Fort Worth Center
Thu 07:25:03 AM 33.1561 -96.0858 71° East 396 456 20,500 1,400 Climbing Fort Worth Center
Thu 07:26:03 AM 33.1986 -95.9461 70° East 408 470 22,000 1,400 Climbing Fort Worth Center
Thu 07:27:03 AM 33.2325 -95.8289 71° East 408 470 23,300 1,350 Climbing Fort Worth Center
Thu 07:28:03 AM 33.2706 -95.6942 71° East 413 475 24,700 1,350 Climbing Fort Worth Center
Thu 07:29:03 AM 33.3439 -95.5708 55° Northeast 413 475 26,000 1,350 Climbing Fort Worth Center
Thu 07:30:03 AM 33.4153 -95.4647 51° Northeast 408 470 27,400 1,400 Climbing Fort Worth Center
Thu 07:31:03 AM 33.4867 -95.3586 51° Northeast 408 470 28,800 1,300 Climbing Fort Worth Center
Thu 07:32:03 AM 33.5539 -95.2550 52° Northeast 403 464 30,000 1,200 Climbing Fort Worth Center
Thu 07:33:03 AM 33.6269 -95.1458 51° Northeast 403 464 31,200 1,050 Climbing Fort Worth Center
Thu 07:34:03 AM 33.6958 -95.0367 53° Northeast 403 464 32,100 1,000 Climbing Fort Worth Center
Thu 07:35:03 AM 33.7689 -94.9222 52° Northeast 408 470 33,200 1,050 Climbing Fort Worth Center
Thu 07:36:03 AM 33.8439 -94.8103 51° Northeast 421 484 34,200 900 Climbing Fort Worth Center
Thu 07:37:03 AM 33.9164 -94.6953 53° Northeast 427 491 35,000 400 Climbing Fort Worth Center
Thu 07:38:03 AM 33.9972 -94.5700 52° Northeast 443 510 35,000  Level Fort Worth Center
Thu 07:39:56 AM 34.1469 -94.3350 52° Northeast 466 536 35,000  Level Memphis Center
Thu 07:40:56 AM 34.2283 -94.2031 53° Northeast 478 550 35,000  Level Memphis Center
Thu 07:41:56 AM 34.3072 -94.0758 53° Northeast 478 550 35,000  Level Memphis Center
Thu 07:42:56 AM 34.3817 -93.9608 52° Northeast 478 550 35,000  Level Memphis Center
Thu 07:43:56 AM 34.4628 -93.8258 54° Northeast 478 550 35,000  Level Memphis Center
Thu 07:44:56 AM 34.5414 -93.6978 53° Northeast 478 550 35,000  Level Memphis Center
Thu 07:45:56 AM 34.6219 -93.5672 53° Northeast 478 550 35,000  Level Memphis Center
Thu 07:46:56 AM 34.7003 -93.4414 53° Northeast 472 543 35,000  Level Memphis Center
Thu 07:47:56 AM 34.7825 -93.3103 53° Northeast 472 543 35,000  Level Memphis Center
Thu 07:48:56 AM 34.8608 -93.1764 54° Northeast 477 549 35,000  Level Memphis Center
Thu 07:49:56 AM 34.9408 -93.0475 53° Northeast 477 549 35,000  Level Memphis Center
Thu 07:50:56 AM 35.0208 -92.9156 53° Northeast 477 549 35,000  Level Memphis Center
Thu 07:51:56 AM 35.1028 -92.7836 53° Northeast 477 549 35,000  Level Memphis Center
Thu 07:52:56 AM 35.1825 -92.6511 54° Northeast 482 555 35,000  Level Memphis Center
Thu 07:53:56 AM 35.2619 -92.5161 54° Northeast 482 555 35,000  Level Memphis Center
Thu 07:54:56 AM 35.3414 -92.3831 54° Northeast 482 555 35,000  Level Memphis Center
Thu 07:55:56 AM 35.4228 -92.2500 53° Northeast 487 560 35,000  Level Memphis Center
Thu 07:56:56 AM 35.4956 -92.1267 54° Northeast 487 560 35,000  Level Memphis Center
Thu 07:57:56 AM 35.5894 -91.9706 53° Northeast 487 560 35,000  Level Memphis Center
Thu 07:58:56 AM 35.6661 -91.8392 54° Northeast 482 555 35,000  Level Memphis Center
Thu 07:59:56 AM 35.7447 -91.7050 54° Northeast 482 555 35,000  Level Memphis Center
Thu 08:00:56 AM 35.8233 -91.5731 54° Northeast 482 555 35,000  Level Memphis Center
Thu 08:01:56 AM 35.9017 -91.4411 54° Northeast 477 549 35,000  Level Memphis Center
Thu 08:02:56 AM 35.9694 -91.3214 55° Northeast 472 543 35,000  Level Memphis Center
Thu 08:03:56 AM 36.0453 -91.1861 55° Northeast 472 543 35,000  Level Memphis Center
Thu 08:04:56 AM 36.1211 -91.0583 54° Northeast 472 543 35,000  Level Memphis Center
Thu 08:05:56 AM 36.1950 -90.9253 55° Northeast 472 543 35,000  Level Memphis Center
Thu 08:06:56 AM 36.2706 -90.7944 54° Northeast 472 543 35,000  Level Memphis Center
Thu 08:07:56 AM 36.3458 -90.6636 54° Northeast 472 543 35,000  Level Memphis Center
Thu 08:08:56 AM 36.4233 -90.5322 54° Northeast 472 543 35,000  Level Memphis Center
Thu 08:09:56 AM 36.4983 -90.3983 55° Northeast 472 543 35,000  Level Memphis Center
Thu 08:10:56 AM 36.5756 -90.2639 54° Northeast 472 543 35,000  Level Memphis Center
Thu 08:11:56 AM 36.6567 -90.1164 56° Northeast 472 543 35,000  Level Memphis Center
Thu 08:12:56 AM 36.7333 -89.9814 55° Northeast 472 543 35,000  Level Memphis Center
Thu 08:13:56 AM 36.8078 -89.8464 55° Northeast 472 543 35,000  Level Memphis Center
Thu 08:14:56 AM 36.8844 -89.7086 55° Northeast 472 543 35,000  Level Memphis Center
Thu 08:15:56 AM 36.9606 -89.5756 54° Northeast 472 543 35,000  Level Memphis Center
Thu 08:16:56 AM 37.0347 -89.4394 56° Northeast 472 543 35,000  Level Memphis Center
Thu 08:17:56 AM 37.1086 -89.3033 56° Northeast 472 543 35,000  Level Memphis Center
Thu 08:18:56 AM 37.1867 -89.1644 55° Northeast 472 543 35,000  Level Memphis Center
Thu 08:19:56 AM 37.2603 -89.0278 56° Northeast 472 543 35,000  Level Memphis Center
Thu 08:20:56 AM 37.3317 -88.8936 56° Northeast 472 543 35,000  Level Memphis Center
Thu 08:21:56 AM 37.4069 -88.7564 55° Northeast 472 543 35,000  Level Memphis Center
Thu 08:22:56 AM 37.4822 -88.6164 56° Northeast 472 543 35,000  Level Memphis Center
Thu 08:25:19 AM 37.6506 -88.2897 57° Northeast 477 549 35,000  Level Indianapolis Center
Thu 08:26:20 AM 37.7294 -88.1417 56° Northeast 478 550 35,000  Level Indianapolis Center
Thu 08:27:22 AM 37.7994 -88.0061 57° Northeast 483 556 35,000  Level Indianapolis Center
Thu 08:28:23 AM 37.8750 -87.8644 56° Northeast 486 559 35,000  Level Indianapolis Center
Thu 08:29:25 AM 37.9511 -87.7231 56° Northeast 483 556 35,000  Level Indianapolis Center
Thu 08:30:27 AM 38.0389 -87.5886 50° Northeast 490 564 35,000  Level Indianapolis Center
Thu 08:31:28 AM 38.1250 -87.4536 51° Northeast 489 563 35,000  Level Indianapolis Center
Thu 08:32:30 AM 38.2289 -87.2897 51° Northeast 493 567 35,000  Level Indianapolis Center
Thu 08:33:31 AM 38.3003 -87.1622 54° Northeast 492 566 35,000  Level Indianapolis Center
Thu 08:34:33 AM 38.3700 -87.0097 60° Northeast 494 568 35,000  Level Indianapolis Center
Thu 08:35:35 AM 38.4403 -86.8575 59° Northeast 498 573 35,000  Level Indianapolis Center
Thu 08:36:36 AM 38.5094 -86.7047 60° Northeast 496 571 35,000  Level Indianapolis Center
Thu 08:37:38 AM 38.5925 -86.5211 60° Northeast 495 570 35,000  Level Indianapolis Center
Thu 08:38:40 AM 38.6625 -86.3672 60° Northeast 497 572 35,000 -244 Level Indianapolis Center
Thu 08:39:41 AM 38.7317 -86.2122 60° Northeast 498 573 34,500 -683 Descending Indianapolis Center
Thu 08:40:43 AM 38.8000 -86.0567 61° Northeast 498 573 33,600 -878 Descending Indianapolis Center
Thu 08:41:44 AM 38.8703 -85.9044 59° Northeast 495 570 32,700 -732 Descending Indianapolis Center
Thu 08:42:46 AM 38.9372 -85.7489 61° Northeast 495 570 32,100 -339 Descending Indianapolis Center
Thu 08:43:48 AM 39.0050 -85.5928 61° Northeast 497 572 32,000 -49 Descending Indianapolis Center
Thu 08:44:49 AM 39.0739 -85.4375 60° Northeast 497 572 32,000  Level Indianapolis Center
Thu 08:45:51 AM 39.1425 -85.2825 60° Northeast 498 573 32,000 -435 Level Indianapolis Center
Thu 08:46:53 AM 39.2169 -85.1092 61° Northeast 504 580 31,100 -927 Descending Indianapolis Center
Thu 08:47:54 AM 39.2856 -84.9494 61° Northeast 503 579 30,100 -878 Descending Indianapolis Center
Thu 08:48:56 AM 39.3533 -84.7889 61° Northeast 505 581 29,300 -581 Descending Indianapolis Center
Thu 08:49:58 AM 39.4225 -84.6272 61° Northeast 509 586 28,900 -146 Descending Indianapolis Center
Thu 08:50:59 AM 39.5011 -84.4439 61° Northeast 498 573 29,000 49 Climbing Indianapolis Center
Thu 08:52:01 AM 39.5661 -84.2856 62° Northeast 494 568 29,000  Level Indianapolis Center
Thu 08:53:03 AM 39.6333 -84.1281 61° Northeast 495 570 29,000  Level Indianapolis Center
Thu 08:54:04 AM 39.7103 -83.9764 57° Northeast 501 577 29,000  Level Indianapolis Center
Thu 08:55:06 AM 39.8175 -83.8589 40° Northeast 496 571 29,000 -484 Level Indianapolis Center
Thu 08:56:08 AM 39.9267 -83.7411 40° Northeast 499 574 28,000 -1,210 Descending Indianapolis Center
Thu 08:57:10 AM 40.0358 -83.6242 39° Northeast 495 570 26,500 -1,512 Descending Indianapolis Center
Thu 08:58:11 AM 40.1422 -83.5086 40° Northeast 488 562 24,900 -1,415 Descending Indianapolis Center
Thu 08:59:13 AM 40.2414 -83.3986 40° Northeast 464 534 23,600 -1,258 Descending Indianapolis Center
Thu 09:00:15 AM 40.3333 -83.2800 45° Northeast 458 527 22,300 -1,355 Descending Indianapolis Center
Thu 09:01:17 AM 40.4222 -83.1664 44° Northeast 442 509 20,800 -1,548 Descending Indianapolis Center
Thu 09:02:19 AM 40.5178 -83.0453 44° Northeast 432 497 19,100 -1,306 Descending Indianapolis Center
Thu 09:03:21 AM 40.6025 -82.9350 45° Northeast 424 488 18,100 -1,474 Descending Indianapolis Center
Thu 09:04:13 AM 40.6700 -82.8525 43° Northeast 413 475 16,300 -2,620 Descending Cleveland Center
Thu 09:04:32 AM 40.7019 -82.8069 47° Northeast 415 478 15,000 -2,833 Descending Cleveland Center
Thu 09:04:49 AM 40.7233 -82.7803 43° Northeast 404 465 14,600 -1,800 Descending Cleveland Center
Thu 09:05:32 AM 40.7769 -82.7053 47° Northeast 397 457 13,200 -1,770 Descending Cleveland Center
Thu 09:05:50 AM 40.8047 -82.6761 38° Northeast 395 455 12,800 -1,700 Descending Cleveland Center
Thu 09:06:32 AM 40.8558 -82.6064 46° Northeast 397 457 11,500 -1,970 Descending Cleveland Center
Thu 09:06:57 AM 40.8858 -82.5661 45° Northeast 389 448 10,600 -1,400 Descending Cleveland Center
Thu 09:07:32 AM 40.9306 -82.5097 44° Northeast 382 440 10,100 -500 Descending Cleveland Center
Thu 09:07:57 AM 40.9583 -82.4747 44° Northeast 356 410 10,100 -100 Level Cleveland Center
Thu 09:08:32 AM 41.0011 -82.4128 48° Northeast 363 418 10,000  Descending Cleveland Center
Thu 09:08:58 AM 41.0308 -82.3778 42° Northeast 368 423 10,100 100 Climbing Cleveland Center
Thu 09:09:32 AM 41.0733 -82.3183 47° Northeast 363 418 10,100 -111 Level Cleveland Center
Thu 09:09:52 AM 41.0989 -82.2886 41° Northeast 370 426 10,000 -100 Descending Cleveland Center
Thu 09:10:32 AM 41.1392 -82.2319 47° Northeast 363 418 10,000  Level Cleveland Center
Thu 09:10:53 AM 41.1711 -82.1886 46° Northeast 371 427 10,000 100 Level Cleveland Center
Thu 09:11:32 AM 41.2114 -82.1344 45° Northeast 363 418 10,100  Climbing Cleveland Center
Thu 09:12:00 AM 41.2436 -82.0769 53° Northeast 346 398 10,000 -100 Descending Cleveland Center
Thu 09:12:32 AM 41.2628 -82.0333 60° Northeast 353 406 10,000 -889 Level Cleveland Center
Thu 09:12:54 AM 41.2822 -81.9869 61° Northeast 277 319 9,200 -1,700 Descending Cleveland Center
Thu 09:13:32 AM 41.3056 -81.9431 55° Northeast 302 348 8,300 -1,612 Descending Cleveland Center
Thu 09:14:01 AM 41.3292 -81.8911 59° Northeast 285 328 7,400 -1,133 Descending Cleveland Center
Thu 09:15:02 AM 41.3697 -81.8033 58° Northeast 283 326 6,600 -1,636 Descending Cleveland Center
Thu 09:16:02 AM 41.4144 -81.7128 57° Northeast 263 303 4,100 -1,654 Descending Cleveland Center
Thu 09:17:09 AM 41.4689 -81.7000 10° North 218 251 3,100 -645 Descending Cleveland Center
Thu 09:18:03 AM 41.4661 -81.7553 266° West 145 167 2,800 -550 Descending Cleveland Center
Thu 09:18:58 AM 41.4492 -81.7936 239° Southwest 118 136 2,100 -776 Descending Cleveland Center
Thu 09:19:59 AM 41.4278 -81.8294 231° Southwest 130 150 1,300 -787 Descending Cleveland Center

Login

Don't have an account? Register now (free) for customized features, flight alerts, and more!